Alges — CSPH — position and weather

sailwx.info

Track history (hours):
 
Tides and Currents Weather Stations Pressure Air Temp Water Temp Dewpoint Dewpoint Depression Visibility Wind Speed Wind Dir Waves Ship Positions

Alges

Last reported at 2018-Feb-25 15:30 UTC. Time now 2018-Feb-25 15:58 UTC.
Position N 38°42' W 009°00'.

Length 45 m; draft 24.8 m.

Type: Passenger vessel. MMSI: 263700008.

Date/timePositionNaut miles runAvg speedWind from/ knotsBaromVisibWave heightAir tempDewpointWater temp
2018-Feb-25 15:30N 38°42' W 009°00'610.7
2018-Feb-25 14:54N 38°42' W 009°09'616.4
2018-Feb-25 14:30N 38°42' W 009°00'0 0.0
2018-Feb-25 13:26N 38°42' W 009°00'614.0
2018-Feb-25 12:58N 38°42' W 009°09'614.0
2018-Feb-25 12:30N 38°42' W 009°00'0 0.0
2018-Feb-25 11:58N 38°42' W 009°00'0 0.0
2018-Feb-25 11:30N 38°42' W 009°00'0 0.3
2018-Feb-25 11:00N 38°42' W 009°01'612.0
2018-Feb-25 10:30N 38°42' W 009°08'612.4
2018-Feb-25 10:00N 38°42' W 009°00'0 0.0
2018-Feb-25 09:30N 38°42' W 009°00'0 0.2
2018-Feb-25 09:00N 38°42' W 009°01'611.9
2018-Feb-25 08:31N 38°42' W 009°08'611.7
2018-Feb-25 08:00N 38°42' W 009°00'0 0.0
2018-Feb-25 07:30N 38°42' W 009°00'0 0.0
2018-Feb-24 22:28N 38°42' W 009°00'613.9
2018-Feb-24 22:00N 38°42' W 009°09'1 1.2
2018-Feb-24 21:30N 38°42' W 009°08'611.5
2018-Feb-24 21:00N 38°42' W 009°00'613.3
2018-Feb-24 20:30N 38°42' W 009°09'612.8
2018-Feb-24 20:00N 38°42' W 009°00'612.9
2018-Feb-24 19:30N 38°42' W 009°09'613.0
2018-Feb-24 19:00N 38°42' W 009°00'0 0.0
2018-Feb-24 18:31N 38°42' W 009°00'612.8
2018-Feb-24 18:00N 38°42' W 009°09'612.9
2018-Feb-24 17:30N 38°42' W 009°00'0 0.0
2018-Feb-24 17:00N 38°42' W 009°00'612.3
2018-Feb-24 16:28N 38°42' W 009°09'613.9
2018-Feb-24 16:01N 38°42' W 009°00'0 0.0
2018-Feb-24 15:30N 38°42' W 009°00'612.8
2018-Feb-24 15:00N 38°42' W 009°09'613.1
2018-Feb-24 14:30N 38°42' W 009°00'0 0.0
2018-Feb-24 14:00N 38°42' W 009°00'0 0.0
2018-Feb-24 13:30N 38°42' W 009°00'612.3
2018-Feb-24 12:59N 38°42' W 009°09'613.7
2018-Feb-24 12:30N 38°42' W 009°00'0 0.0
2018-Feb-24 12:00N 38°42' W 009°00'0 0.0
2018-Feb-24 11:30N 38°42' W 009°00'610.7
2018-Feb-24 10:54N 38°42' W 009°09'616.1
2018-Feb-24 10:30N 38°42' W 009°00'0 0.0
2018-Feb-24 10:00N 38°42' W 009°00'0 0.0
2018-Feb-24 09:30N 38°42' W 009°00'610.6
2018-Feb-24 08:53N 38°42' W 009°09'616.6
2018-Feb-24 08:30N 38°42' W 009°00'611.4
2018-Feb-24 07:56N 38°42' W 009°09'613.6
2018-Feb-24 07:27N 38°42' W 009°00'613.4
2018-Feb-24 06:59N 38°42' W 009°09'613.7
2018-Feb-24 06:30N 38°42' W 009°00'0 0.0
2018-Feb-24 06:00N 38°42' W 009°00'0 0.0
2018-Feb-23 23:43N 38°42' W 009°00'211.4
2018-Feb-23 23:30N 38°41' W 009°03'4 7.0
2018-Feb-23 22:53N 38°42' W 009°09'616.8
2018-Feb-23 22:30N 38°42' W 009°00'610.4
2018-Feb-23 21:53N 38°42' W 009°09'617.3
2018-Feb-23 21:30N 38°42' W 009°00'612.8
2018-Feb-23 21:00N 38°42' W 009°09'612.6
2018-Feb-23 20:29N 38°42' W 009°00'613.3
2018-Feb-23 20:00N 38°42' W 009°09'612.9
2018-Feb-23 19:30N 38°42' W 009°00'612.6
2018-Feb-23 18:59N 38°42' W 009°09'613.5
2018-Feb-23 18:30N 38°42' W 009°00'611.7
2018-Feb-23 17:57N 38°42' W 009°09'614.7
2018-Feb-23 17:31N 38°42' W 009°00'612.7
2018-Feb-23 17:00N 38°42' W 009°09'613.0
2018-Feb-23 16:30N 38°42' W 009°00'0 0.0
2018-Feb-23 11:35N 38°42' W 009°00'114.6
2018-Feb-23 11:30N 38°41' W 009°02'6 6.5
2018-Feb-23 10:40N 38°41' W 009°09'0 0.0
2018-Feb-23 10:23N 38°41' W 009°09'0 0.8
2018-Feb-23 10:00N 38°41' W 009°09'613.0
2018-Feb-23 09:30N 38°42' W 009°00'612.8
2018-Feb-23 09:00N 38°42' W 009°09'613.2
2018-Feb-23 08:30N 38°42' W 009°00'612.9
2018-Feb-23 08:00N 38°42' W 009°09'612.9
2018-Feb-23 07:30N 38°42' W 009°00'0 0.0
2018-Feb-22 19:59N 38°42' W 009°00'613.5
2018-Feb-22 19:30N 38°42' W 009°09'613.0
2018-Feb-22 19:01N 38°42' W 009°00'611.1
2018-Feb-22 18:26N 38°42' W 009°09'614.9
2018-Feb-22 18:00N 38°42' W 009°00'613.2
2018-Feb-22 17:30N 38°42' W 009°09'613.0
2018-Feb-22 17:00N 38°42' W 009°00'612.7
2018-Feb-22 16:30N 38°42' W 009°09'613.2
2018-Feb-22 16:00N 38°42' W 009°00'612.9
2018-Feb-22 15:30N 38°42' W 009°09'613.0
2018-Feb-22 15:01N 38°42' W 009°00'0 0.0
2018-Feb-22 14:30N 38°42' W 009°00'612.7
2018-Feb-22 14:00N 38°42' W 009°09'613.2
2018-Feb-22 13:30N 38°42' W 009°00'0 0.0
2018-Feb-22 12:58N 38°42' W 009°00'612.6
2018-Feb-22 12:27N 38°42' W 009°09'613.3
2018-Feb-22 11:58N 38°42' W 009°00'0 0.0
2018-Feb-22 11:30N 38°42' W 009°00'6 8.6
2018-Feb-22 10:45N 38°42' W 009°09'415.5
2018-Feb-22 10:30N 38°39' W 009°06'4 7.7
2018-Feb-22 10:00N 38°42' W 009°09'0 0.3
2018-Feb-22 09:25N 38°42' W 009°09'615.1
2018-Feb-22 09:00N 38°42' W 009°00'612.6
2018-Feb-22 08:29N 38°42' W 009°09'613.6
2018-Feb-22 08:01N 38°42' W 009°00'611.4
2018-Feb-22 07:26N 38°42' W 009°09'614.9
2018-Feb-22 07:00N 38°42' W 009°00'612.2
2018-Feb-22 06:29N 38°42' W 009°09'613.8
2018-Feb-22 06:01N 38°42' W 009°00'0 0.0
2018-Feb-22 05:31N 38°42' W 009°00'0 0.0
2018-Feb-21 23:41N 38°42' W 009°00'210.2
2018-Feb-21 23:31N 38°41' W 009°02'5 9.8
2018-Feb-21 23:00N 38°42' W 009°09'612.9
2018-Feb-21 22:30N 38°42' W 009°00'610.4
2018-Feb-21 21:53N 38°42' W 009°09'617.2
2018-Feb-21 21:30N 38°42' W 009°00'610.6
2018-Feb-21 20:54N 38°42' W 009°09'616.5
2018-Feb-21 20:30N 38°42' W 009°00'612.2
2018-Feb-21 19:59N 38°42' W 009°09'613.5
2018-Feb-21 19:30N 38°42' W 009°00'610.6
2018-Feb-21 18:54N 38°42' W 009°09'616.8
2018-Feb-21 18:30N 38°42' W 009°00'612.9
2018-Feb-21 18:00N 38°42' W 009°09'612.9
2018-Feb-21 17:30N 38°42' W 009°00'612.9
2018-Feb-21 17:00N 38°42' W 009°09'613.0
2018-Feb-21 16:30N 38°42' W 009°00'0 0.0
2018-Feb-21 11:26N 38°42' W 009°01'614.2
2018-Feb-21 10:58N 38°41' W 009°09'0 0.3
2018-Feb-21 10:29N 38°41' W 009°09'3 6.5
2018-Feb-21 09:59N 38°39' W 009°06'4 8.4
2018-Feb-21 09:30N 38°42' W 009°09'613.0
2018-Feb-21 09:00N 38°42' W 009°00'611.9
2018-Feb-21 08:27N 38°42' W 009°09'614.5
2018-Feb-21 08:00N 38°42' W 009°00'611.7
2018-Feb-21 07:27N 38°42' W 009°09'614.5
2018-Feb-21 07:00N 38°42' W 009°00'612.3
2018-Feb-21 06:29N 38°42' W 009°09'613.5
2018-Feb-21 06:00N 38°42' W 009°00'0 0.0
2018-Feb-21 05:30N 38°42' W 009°00'0 0.0
2018-Feb-20 23:40N 38°42' W 009°00'212.6
2018-Feb-20 23:30N 38°41' W 009°03'5 9.1
2018-Feb-20 23:00N 38°42' W 009°09'612.9
2018-Feb-20 22:30N 38°42' W 009°00'611.0
2018-Feb-20 21:55N 38°42' W 009°09'614.5
2018-Feb-20 21:29N 38°42' W 009°00'0 0.1
2018-Feb-20 20:23N 38°42' W 009°00'0 0.1
2018-Feb-20 20:00N 38°42' W 009°00'613.2
2018-Feb-20 19:30N 38°42' W 009°09'613.0
2018-Feb-20 19:01N 38°42' W 009°00'610.8
2018-Feb-20 18:25N 38°42' W 009°09'615.9
2018-Feb-20 18:00N 38°42' W 009°00'612.4
2018-Feb-20 17:29N 38°42' W 009°09'613.5
2018-Feb-20 17:00N 38°42' W 009°00'611.7
2018-Feb-20 16:27N 38°42' W 009°09'614.5
2018-Feb-20 16:00N 38°42' W 009°00'612.4
2018-Feb-20 15:29N 38°42' W 009°09'613.4
2018-Feb-20 15:00N 38°42' W 009°00'0 0.0
2018-Feb-20 14:30N 38°42' W 009°00'612.2
2018-Feb-20 13:58N 38°42' W 009°09'612.6
2018-Feb-20 13:27N 38°42' W 009°00'0 0.0
2018-Feb-20 12:59N 38°42' W 009°00'613.2
2018-Feb-20 12:30N 38°42' W 009°09'6 7.8
2018-Feb-20 11:40N 38°42' W 009°00'0 0.0
2018-Feb-20 11:30N 38°42' W 009°00'611.2
2018-Feb-20 10:56N 38°42' W 009°09'614.8
2018-Feb-20 10:30N 38°42' W 009°00'611.1
2018-Feb-20 09:55N 38°42' W 009°09'615.2
2018-Feb-20 09:29N 38°42' W 009°00'613.1
2018-Feb-20 09:00N 38°42' W 009°09'612.9
2018-Feb-20 08:30N 38°42' W 009°00'613.0
2018-Feb-20 08:00N 38°42' W 009°09'613.0
2018-Feb-20 07:30N 38°42' W 009°00'0 0.0
2018-Feb-19 20:03N 38°42' W 009°00'0 0.0
2018-Feb-19 20:00N 38°42' W 009°00'612.6
2018-Feb-19 19:29N 38°42' W 009°09'613.6
2018-Feb-19 19:00N 38°42' W 009°00'611.0
2018-Feb-19 18:25N 38°42' W 009°09'615.4
2018-Feb-19 18:00N 38°42' W 009°00'612.1
2018-Feb-19 17:28N 38°42' W 009°09'614.0
2018-Feb-19 17:00N 38°42' W 009°00'612.7
2018-Feb-19 16:30N 38°42' W 009°09'613.0
2018-Feb-19 16:00N 38°42' W 009°00'611.4
2018-Feb-19 15:26N 38°42' W 009°09'614.7
2018-Feb-19 15:00N 38°42' W 009°00'0 0.0
2018-Feb-19 14:30N 38°42' W 009°00'613.1
2018-Feb-19 14:00N 38°42' W 009°09'612.9
2018-Feb-19 13:31N 38°42' W 009°00'0 0.0
2018-Feb-19 13:00N 38°42' W 009°00'613.0
2018-Feb-19 12:30N 38°42' W 009°09'612.7
2018-Feb-19 12:00N 38°42' W 009°00'0 0.0
2018-Feb-19 11:30N 38°42' W 009°00'612.5
2018-Feb-19 10:59N 38°42' W 009°09'613.4
2018-Feb-19 10:30N 38°42' W 009°00'612.7
2018-Feb-19 10:00N 38°42' W 009°09'613.3
2018-Feb-19 09:31N 38°42' W 009°00'612.8
2018-Feb-19 09:00N 38°42' W 009°09'612.9
2018-Feb-19 08:30N 38°42' W 009°00'612.9
2018-Feb-19 08:00N 38°42' W 009°09'612.9
2018-Feb-19 07:30N 38°42' W 009°00'  
2018-Feb-16 20:28N 38°42' W 009°00'713.5
2018-Feb-16 20:00N 38°42' W 009°09'613.3
2018-Feb-16 19:30N 38°42' W 009°00'611.3
2018-Feb-16 18:56N 38°42' W 009°09'615.1
2018-Feb-16 18:30N 38°42' W 009°00'611.0
2018-Feb-16 17:55N 38°42' W 009°09'615.6
2018-Feb-16 17:30N 38°42' W 009°00'612.7
2018-Feb-16 17:00N 38°42' W 009°09'613.1
2018-Feb-16 16:30N 38°42' W 009°00'4 7.1
2018-Feb-16 16:00N 38°41' W 009°05'4 7.2
2018-Feb-16 15:28N 38°41' W 009°10'0 0.9
2018-Feb-16 15:00N 38°41' W 009°10'1 0.0
2018-Feb-15 18:36N 38°41' W 009°09'0 0.0
2018-Feb-15 18:12N 38°41' W 009°09'0 0.6
2018-Feb-15 18:00N 38°41' W 009°09'  
Track history (hours):
 
Tides and Currents Weather Stations Pressure Air Temp Water Temp Dewpoint Dewpoint Depression Visibility Wind Speed Wind Dir Waves Ship Positions

Alges

Last reported at 2018-Feb-25 15:30 UTC. Time now 2018-Feb-25 15:58 UTC.
Position N 38°42' W 009°00'.

Length 45 m; draft 24.8 m.

Type: Passenger vessel. MMSI: 263700008.

Date/timePositionNaut miles runAvg speedWind from/ knotsBaromVisibWave heightAir tempDewpointWater temp
2018-Feb-25 15:30N 38°42' W 009°00'610.7
2018-Feb-25 14:54N 38°42' W 009°09'616.4
2018-Feb-25 14:30N 38°42' W 009°00'0 0.0
2018-Feb-25 13:26N 38°42' W 009°00'614.0
2018-Feb-25 12:58N 38°42' W 009°09'614.0
2018-Feb-25 12:30N 38°42' W 009°00'0 0.0
2018-Feb-25 11:58N 38°42' W 009°00'0 0.0
2018-Feb-25 11:30N 38°42' W 009°00'0 0.3
2018-Feb-25 11:00N 38°42' W 009°01'612.0
2018-Feb-25 10:30N 38°42' W 009°08'612.4
2018-Feb-25 10:00N 38°42' W 009°00'0 0.0
2018-Feb-25 09:30N 38°42' W 009°00'0 0.2
2018-Feb-25 09:00N 38°42' W 009°01'611.9
2018-Feb-25 08:31N 38°42' W 009°08'611.7
2018-Feb-25 08:00N 38°42' W 009°00'0 0.0
2018-Feb-25 07:30N 38°42' W 009°00'0 0.0
2018-Feb-24 22:28N 38°42' W 009°00'613.9
2018-Feb-24 22:00N 38°42' W 009°09'1 1.2
2018-Feb-24 21:30N 38°42' W 009°08'611.5
2018-Feb-24 21:00N 38°42' W 009°00'613.3
2018-Feb-24 20:30N 38°42' W 009°09'612.8
2018-Feb-24 20:00N 38°42' W 009°00'612.9
2018-Feb-24 19:30N 38°42' W 009°09'613.0
2018-Feb-24 19:00N 38°42' W 009°00'0 0.0
2018-Feb-24 18:31N 38°42' W 009°00'612.8
2018-Feb-24 18:00N 38°42' W 009°09'612.9
2018-Feb-24 17:30N 38°42' W 009°00'0 0.0
2018-Feb-24 17:00N 38°42' W 009°00'612.3
2018-Feb-24 16:28N 38°42' W 009°09'613.9
2018-Feb-24 16:01N 38°42' W 009°00'0 0.0
2018-Feb-24 15:30N 38°42' W 009°00'612.8
2018-Feb-24 15:00N 38°42' W 009°09'613.1
2018-Feb-24 14:30N 38°42' W 009°00'0 0.0
2018-Feb-24 14:00N 38°42' W 009°00'0 0.0
2018-Feb-24 13:30N 38°42' W 009°00'612.3
2018-Feb-24 12:59N 38°42' W 009°09'613.7
2018-Feb-24 12:30N 38°42' W 009°00'0 0.0
2018-Feb-24 12:00N 38°42' W 009°00'0 0.0
2018-Feb-24 11:30N 38°42' W 009°00'610.7
2018-Feb-24 10:54N 38°42' W 009°09'616.1
2018-Feb-24 10:30N 38°42' W 009°00'0 0.0
2018-Feb-24 10:00N 38°42' W 009°00'0 0.0
2018-Feb-24 09:30N 38°42' W 009°00'610.6
2018-Feb-24 08:53N 38°42' W 009°09'616.6
2018-Feb-24 08:30N 38°42' W 009°00'611.4
2018-Feb-24 07:56N 38°42' W 009°09'613.6
2018-Feb-24 07:27N 38°42' W 009°00'613.4
2018-Feb-24 06:59N 38°42' W 009°09'613.7
2018-Feb-24 06:30N 38°42' W 009°00'0 0.0
2018-Feb-24 06:00N 38°42' W 009°00'0 0.0
2018-Feb-23 23:43N 38°42' W 009°00'211.4
2018-Feb-23 23:30N 38°41' W 009°03'4 7.0
2018-Feb-23 22:53N 38°42' W 009°09'616.8
2018-Feb-23 22:30N 38°42' W 009°00'610.4
2018-Feb-23 21:53N 38°42' W 009°09'617.3
2018-Feb-23 21:30N 38°42' W 009°00'612.8
2018-Feb-23 21:00N 38°42' W 009°09'612.6
2018-Feb-23 20:29N 38°42' W 009°00'613.3
2018-Feb-23 20:00N 38°42' W 009°09'612.9
2018-Feb-23 19:30N 38°42' W 009°00'612.6
2018-Feb-23 18:59N 38°42' W 009°09'613.5
2018-Feb-23 18:30N 38°42' W 009°00'611.7
2018-Feb-23 17:57N 38°42' W 009°09'614.7
2018-Feb-23 17:31N 38°42' W 009°00'612.7
2018-Feb-23 17:00N 38°42' W 009°09'613.0
2018-Feb-23 16:30N 38°42' W 009°00'0 0.0
2018-Feb-23 11:35N 38°42' W 009°00'114.6
2018-Feb-23 11:30N 38°41' W 009°02'6 6.5
2018-Feb-23 10:40N 38°41' W 009°09'0 0.0
2018-Feb-23 10:23N 38°41' W 009°09'0 0.8
2018-Feb-23 10:00N 38°41' W 009°09'613.0
2018-Feb-23 09:30N 38°42' W 009°00'612.8
2018-Feb-23 09:00N 38°42' W 009°09'613.2
2018-Feb-23 08:30N 38°42' W 009°00'612.9
2018-Feb-23 08:00N 38°42' W 009°09'612.9
2018-Feb-23 07:30N 38°42' W 009°00'0 0.0
2018-Feb-22 19:59N 38°42' W 009°00'613.5
2018-Feb-22 19:30N 38°42' W 009°09'613.0
2018-Feb-22 19:01N 38°42' W 009°00'611.1
2018-Feb-22 18:26N 38°42' W 009°09'614.9
2018-Feb-22 18:00N 38°42' W 009°00'613.2
2018-Feb-22 17:30N 38°42' W 009°09'613.0
2018-Feb-22 17:00N 38°42' W 009°00'612.7
2018-Feb-22 16:30N 38°42' W 009°09'613.2
2018-Feb-22 16:00N 38°42' W 009°00'612.9
2018-Feb-22 15:30N 38°42' W 009°09'613.0
2018-Feb-22 15:01N 38°42' W 009°00'0 0.0
2018-Feb-22 14:30N 38°42' W 009°00'612.7
2018-Feb-22 14:00N 38°42' W 009°09'613.2
2018-Feb-22 13:30N 38°42' W 009°00'0 0.0
2018-Feb-22 12:58N 38°42' W 009°00'612.6
2018-Feb-22 12:27N 38°42' W 009°09'613.3
2018-Feb-22 11:58N 38°42' W 009°00'0 0.0
2018-Feb-22 11:30N 38°42' W 009°00'6 8.6
2018-Feb-22 10:45N 38°42' W 009°09'415.5
2018-Feb-22 10:30N 38°39' W 009°06'4 7.7
2018-Feb-22 10:00N 38°42' W 009°09'0 0.3
2018-Feb-22 09:25N 38°42' W 009°09'615.1
2018-Feb-22 09:00N 38°42' W 009°00'612.6
2018-Feb-22 08:29N 38°42' W 009°09'613.6
2018-Feb-22 08:01N 38°42' W 009°00'611.4
2018-Feb-22 07:26N 38°42' W 009°09'614.9
2018-Feb-22 07:00N 38°42' W 009°00'612.2
2018-Feb-22 06:29N 38°42' W 009°09'613.8
2018-Feb-22 06:01N 38°42' W 009°00'0 0.0
2018-Feb-22 05:31N 38°42' W 009°00'0 0.0
2018-Feb-21 23:41N 38°42' W 009°00'210.2
2018-Feb-21 23:31N 38°41' W 009°02'5 9.8
2018-Feb-21 23:00N 38°42' W 009°09'612.9
2018-Feb-21 22:30N 38°42' W 009°00'610.4
2018-Feb-21 21:53N 38°42' W 009°09'617.2
2018-Feb-21 21:30N 38°42' W 009°00'610.6
2018-Feb-21 20:54N 38°42' W 009°09'616.5
2018-Feb-21 20:30N 38°42' W 009°00'612.2
2018-Feb-21 19:59N 38°42' W 009°09'613.5
2018-Feb-21 19:30N 38°42' W 009°00'610.6
2018-Feb-21 18:54N 38°42' W 009°09'616.8
2018-Feb-21 18:30N 38°42' W 009°00'612.9
2018-Feb-21 18:00N 38°42' W 009°09'612.9
2018-Feb-21 17:30N 38°42' W 009°00'612.9
2018-Feb-21 17:00N 38°42' W 009°09'613.0
2018-Feb-21 16:30N 38°42' W 009°00'0 0.0
2018-Feb-21 11:26N 38°42' W 009°01'614.2
2018-Feb-21 10:58N 38°41' W 009°09'0 0.3
2018-Feb-21 10:29N 38°41' W 009°09'3 6.5
2018-Feb-21 09:59N 38°39' W 009°06'4 8.4
2018-Feb-21 09:30N 38°42' W 009°09'613.0
2018-Feb-21 09:00N 38°42' W 009°00'611.9
2018-Feb-21 08:27N 38°42' W 009°09'614.5
2018-Feb-21 08:00N 38°42' W 009°00'611.7
2018-Feb-21 07:27N 38°42' W 009°09'614.5
2018-Feb-21 07:00N 38°42' W 009°00'612.3
2018-Feb-21 06:29N 38°42' W 009°09'613.5
2018-Feb-21 06:00N 38°42' W 009°00'0 0.0
2018-Feb-21 05:30N 38°42' W 009°00'0 0.0
2018-Feb-20 23:40N 38°42' W 009°00'212.6
2018-Feb-20 23:30N 38°41' W 009°03'5 9.1
2018-Feb-20 23:00N 38°42' W 009°09'612.9
2018-Feb-20 22:30N 38°42' W 009°00'611.0
2018-Feb-20 21:55N 38°42' W 009°09'614.5
2018-Feb-20 21:29N 38°42' W 009°00'0 0.1
2018-Feb-20 20:23N 38°42' W 009°00'0 0.1
2018-Feb-20 20:00N 38°42' W 009°00'613.2
2018-Feb-20 19:30N 38°42' W 009°09'613.0
2018-Feb-20 19:01N 38°42' W 009°00'610.8
2018-Feb-20 18:25N 38°42' W 009°09'615.9
2018-Feb-20 18:00N 38°42' W 009°00'612.4
2018-Feb-20 17:29N 38°42' W 009°09'613.5
2018-Feb-20 17:00N 38°42' W 009°00'611.7
2018-Feb-20 16:27N 38°42' W 009°09'614.5
2018-Feb-20 16:00N 38°42' W 009°00'612.4
2018-Feb-20 15:29N 38°42' W 009°09'613.4
2018-Feb-20 15:00N 38°42' W 009°00'0 0.0
2018-Feb-20 14:30N 38°42' W 009°00'612.2
2018-Feb-20 13:58N 38°42' W 009°09'612.6
2018-Feb-20 13:27N 38°42' W 009°00'0 0.0
2018-Feb-20 12:59N 38°42' W 009°00'613.2
2018-Feb-20 12:30N 38°42' W 009°09'6 7.8
2018-Feb-20 11:40N 38°42' W 009°00'0 0.0
2018-Feb-20 11:30N 38°42' W 009°00'611.2
2018-Feb-20 10:56N 38°42' W 009°09'614.8
2018-Feb-20 10:30N 38°42' W 009°00'611.1
2018-Feb-20 09:55N 38°42' W 009°09'615.2
2018-Feb-20 09:29N 38°42' W 009°00'613.1
2018-Feb-20 09:00N 38°42' W 009°09'612.9
2018-Feb-20 08:30N 38°42' W 009°00'613.0
2018-Feb-20 08:00N 38°42' W 009°09'613.0
2018-Feb-20 07:30N 38°42' W 009°00'0 0.0
2018-Feb-19 20:03N 38°42' W 009°00'0 0.0
2018-Feb-19 20:00N 38°42' W 009°00'612.6
2018-Feb-19 19:29N 38°42' W 009°09'613.6
2018-Feb-19 19:00N 38°42' W 009°00'611.0
2018-Feb-19 18:25N 38°42' W 009°09'615.4
2018-Feb-19 18:00N 38°42' W 009°00'612.1
2018-Feb-19 17:28N 38°42' W 009°09'614.0
2018-Feb-19 17:00N 38°42' W 009°00'612.7
2018-Feb-19 16:30N 38°42' W 009°09'613.0
2018-Feb-19 16:00N 38°42' W 009°00'611.4
2018-Feb-19 15:26N 38°42' W 009°09'614.7
2018-Feb-19 15:00N 38°42' W 009°00'0 0.0
2018-Feb-19 14:30N 38°42' W 009°00'613.1
2018-Feb-19 14:00N 38°42' W 009°09'612.9
2018-Feb-19 13:31N 38°42' W 009°00'0 0.0
2018-Feb-19 13:00N 38°42' W 009°00'613.0
2018-Feb-19 12:30N 38°42' W 009°09'612.7
2018-Feb-19 12:00N 38°42' W 009°00'0 0.0
2018-Feb-19 11:30N 38°42' W 009°00'612.5
2018-Feb-19 10:59N 38°42' W 009°09'613.4
2018-Feb-19 10:30N 38°42' W 009°00'612.7
2018-Feb-19 10:00N 38°42' W 009°09'613.3
2018-Feb-19 09:31N 38°42' W 009°00'612.8
2018-Feb-19 09:00N 38°42' W 009°09'612.9
2018-Feb-19 08:30N 38°42' W 009°00'612.9
2018-Feb-19 08:00N 38°42' W 009°09'612.9
2018-Feb-19 07:30N 38°42' W 009°00'  
2018-Feb-16 20:28N 38°42' W 009°00'713.5
2018-Feb-16 20:00N 38°42' W 009°09'613.3
2018-Feb-16 19:30N 38°42' W 009°00'611.3
2018-Feb-16 18:56N 38°42' W 009°09'615.1
2018-Feb-16 18:30N 38°42' W 009°00'611.0
2018-Feb-16 17:55N 38°42' W 009°09'615.6
2018-Feb-16 17:30N 38°42' W 009°00'612.7
2018-Feb-16 17:00N 38°42' W 009°09'613.1
2018-Feb-16 16:30N 38°42' W 009°00'4 7.1
2018-Feb-16 16:00N 38°41' W 009°05'4 7.2
2018-Feb-16 15:28N 38°41' W 009°10'0 0.9
2018-Feb-16 15:00N 38°41' W 009°10'1 0.0
2018-Feb-15 18:36N 38°41' W 009°09'0 0.0
2018-Feb-15 18:12N 38°41' W 009°09'0 0.6
2018-Feb-15 18:00N 38°41' W 009°09'  

Dump ship's entire track history